Time;durP1;ratioP1;P1;durP2;ratioP2;P2;SDS_P1;SDS_P2;PMS_P1;PMS_P2;Temp;Humidity;BMP_temperature;BMP_pressure;BME280_temperature;BME280_humidity;BME280_pressure;Samples;Min_cycle;Max_cycle;Signal;HPM_P1;HPM_P2
2023/12/18 00:00:47;;;;;;;28.90;10.82;;;;;;;5.99;100.00;103343.38;5201231;28;20181;-73
2023/12/18 00:03:18;;;;;;;30.27;12.73;;;;;;;5.86;100.00;103335.94;5206032;28;20055;-73
2023/12/18 00:05:48;;;;;;;26.05;11.52;;;;;;;5.85;100.00;103338.69;5200937;28;20086;-72
2023/12/18 00:08:19;;;;;;;26.23;11.35;;;;;;;5.81;100.00;103347.75;5203306;28;20430;-72
2023/12/18 00:10:49;;;;;;;24.00;10.98;;;;;;;5.79;100.00;103355.84;5204554;28;20021;-73
2023/12/18 00:13:20;;;;;;;29.27;11.75;;;;;;;5.72;100.00;103365.03;5204049;28;20026;-73
2023/12/18 00:15:50;;;;;;;35.97;12.05;;;;;;;5.70;100.00;103356.25;5205057;28;20035;-72
2023/12/18 00:18:21;;;;;;;26.70;11.82;;;;;;;5.67;100.00;103353.75;5202680;28;20044;-72
2023/12/18 00:20:52;;;;;;;27.42;11.70;;;;;;;5.66;100.00;103344.88;5203342;28;20021;-72
2023/12/18 00:23:22;;;;;;;32.08;11.90;;;;;;;5.59;100.00;103350.59;5204350;28;20021;-72
2023/12/18 00:25:53;;;;;;;35.95;13.30;;;;;;;5.54;100.00;103349.94;5205027;28;20447;-72
2023/12/18 00:28:23;;;;;;;29.02;11.77;;;;;;;5.53;100.00;103345.56;5204350;28;20025;-72
2023/12/18 00:30:54;;;;;;;29.70;12.50;;;;;;;5.54;100.00;103348.16;5204613;28;20472;-72
2023/12/18 00:33:26;;;;;;;27.05;11.30;;;;;;;5.53;100.00;103349.09;5202867;28;20025;-72
2023/12/18 00:35:56;;;;;;;26.50;11.93;;;;;;;5.58;100.00;103355.06;5204449;28;20369;-72
2023/12/18 00:38:27;;;;;;;28.15;11.85;;;;;;;5.50;100.00;103353.69;5200967;28;20037;-72
2023/12/18 00:40:57;;;;;;;37.50;13.18;;;;;;;5.43;100.00;103350.47;5202074;28;20242;-72
2023/12/18 00:43:28;;;;;;;31.30;12.48;;;;;;;5.42;100.00;103351.38;5206906;28;20445;-72
2023/12/18 00:45:58;;;;;;;30.80;12.85;;;;;;;5.44;100.00;103355.69;5205477;28;20072;-72
2023/12/18 00:48:29;;;;;;;26.70;14.30;;;;;;;5.49;100.00;103363.47;5204176;28;20120;-72
2023/12/18 00:50:59;;;;;;;29.98;12.25;;;;;;;5.50;100.00;103359.00;5205565;28;20802;-72
2023/12/18 00:53:30;;;;;;;32.80;12.38;;;;;;;5.53;100.00;103367.72;5202365;28;20029;-72
2023/12/18 00:56:00;;;;;;;28.02;13.02;;;;;;;5.60;100.00;103366.50;5205818;28;20384;-73
2023/12/18 00:58:31;;;;;;;30.40;11.48;;;;;;;5.76;100.00;103366.63;5203087;28;20037;-73
2023/12/18 01:01:01;;;;;;;25.45;12.40;;;;;;;5.76;100.00;103365.75;5203918;28;20056;-73
2023/12/18 01:03:32;;;;;;;26.50;12.63;;;;;;;5.83;100.00;103361.88;5203302;28;20105;-72
2023/12/18 01:06:02;;;;;;;28.95;12.13;;;;;;;5.88;100.00;103359.84;5205998;28;20017;-73
2023/12/18 01:08:33;;;;;;;27.10;12.55;;;;;;;5.71;100.00;103363.31;5204089;28;20439;-73
2023/12/18 01:11:03;;;;;;;31.88;13.95;;;;;;;5.74;100.00;103357.84;5204049;28;20025;-72
2023/12/18 01:13:34;;;;;;;28.77;13.00;;;;;;;5.79;100.00;103354.97;5206316;28;20025;-72
2023/12/18 01:16:04;;;;;;;34.67;12.70;;;;;;;5.82;100.00;103361.00;5207403;28;21170;-73
2023/12/18 01:18:35;;;;;;;33.05;12.63;;;;;;;5.84;100.00;103358.28;5203147;28;20032;-73
2023/12/18 01:21:05;;;;;;;24.90;11.15;;;;;;;5.94;100.00;103368.44;5201585;28;20032;-73
2023/12/18 01:23:36;;;;;;;33.38;13.65;;;;;;;5.93;100.00;103356.06;5202671;28;20034;-73
2023/12/18 01:26:06;;;;;;;34.60;15.45;;;;;;;5.81;100.00;103359.28;5204120;28;20726;-73
2023/12/18 01:28:37;;;;;;;35.22;13.98;;;;;;;5.64;100.00;103369.88;5205038;28;20038;-72
2023/12/18 01:31:08;;;;;;;34.08;13.93;;;;;;;5.78;100.00;103367.44;5201586;28;20112;-73
2023/12/18 01:33:38;;;;;;;38.30;14.70;;;;;;;5.83;100.00;103376.06;5205548;28;20217;-73
2023/12/18 01:36:09;;;;;;;34.08;14.75;;;;;;;5.91;100.00;103370.34;5203009;28;20108;-73
2023/12/18 01:38:39;;;;;;;35.20;13.88;;;;;;;5.91;100.00;103370.34;5205224;28;20025;-73
2023/12/18 01:41:10;;;;;;;32.25;14.63;;;;;;;5.96;100.00;103371.88;5204121;28;20059;-73
2023/12/18 01:43:40;;;;;;;37.90;14.43;;;;;;;6.01;100.00;103376.13;5204317;28;20629;-73
2023/12/18 01:46:17;;;;;;;38.70;14.95;;;;;;;6.03;100.00;103371.59;5201225;28;20021;-73
2023/12/18 01:48:48;;;;;;;32.95;14.68;;;;;;;6.02;100.00;103368.06;5203538;28;20369;-73
2023/12/18 01:51:20;;;;;;;32.05;15.43;;;;;;;6.09;100.00;103368.63;5201606;28;20174;-73
2023/12/18 01:53:54;;;;;;;37.03;14.90;;;;;;;5.90;100.00;103369.50;5205328;28;20048;-73
2023/12/18 01:56:28;;;;;;;39.30;15.77;;;;;;;5.80;100.00;103367.34;5201586;28;20032;-73
2023/12/18 01:58:59;;;;;;;41.45;16.08;;;;;;;5.80;100.00;103364.69;5203881;28;20025;-73
2023/12/18 02:01:30;;;;;;;45.95;16.30;;;;;;;5.85;100.00;103360.00;5204991;28;20057;-72
2023/12/18 02:04:01;;;;;;;46.70;18.02;;;;;;;5.88;100.00;103354.53;5204821;28;20075;-73
2023/12/18 02:06:31;;;;;;;41.47;17.42;;;;;;;5.91;100.00;103351.69;5204753;28;20022;-73
2023/12/18 02:09:02;;;;;;;42.17;17.42;;;;;;;5.83;100.00;103351.22;5205805;28;20056;-73
2023/12/18 02:11:34;;;;;;;49.20;17.17;;;;;;;5.80;100.00;103351.38;5205029;28;20043;-73
2023/12/18 02:14:05;;;;;;;50.83;18.48;;;;;;;5.75;100.00;103348.91;5207763;28;20038;-72
2023/12/18 02:16:46;;;;;;;49.10;18.33;;;;;;;5.89;100.00;103346.44;5205689;28;20064;-73
2023/12/18 02:19:22;;;;;;;54.80;19.58;;;;;;;5.90;100.00;103352.66;5206131;28;20028;-73
2023/12/18 02:21:55;;;;;;;53.55;20.90;;;;;;;5.87;100.00;103339.47;5201750;28;20025;-73
2023/12/18 02:24:25;;;;;;;44.28;19.05;;;;;;;5.96;100.00;103339.91;5203867;28;20025;-73
2023/12/18 02:26:58;;;;;;;46.10;18.85;;;;;;;5.97;100.00;103344.31;5209232;28;20075;-73
2023/12/18 02:29:29;;;;;;;40.45;17.63;;;;;;;5.97;100.00;103339.00;5206846;28;20032;-72
2023/12/18 02:32:00;;;;;;;46.47;17.02;;;;;;;6.01;100.00;103334.34;5209445;28;20028;-72
2023/12/18 02:34:50;;;;;;;44.03;18.00;;;;;;;5.97;100.00;103332.78;5209803;28;20414;-72
2023/12/18 02:37:27;;;;;;;46.17;17.55;;;;;;;5.94;100.00;103333.81;5201808;28;20024;-72
2023/12/18 02:39:58;;;;;;;52.28;18.67;;;;;;;5.90;100.00;103326.00;5208043;28;20029;-71
2023/12/18 02:42:28;;;;;;;49.55;19.00;;;;;;;5.90;100.00;103323.34;5206930;28;20365;-72
2023/12/18 02:45:00;;;;;;;53.78;18.88;;;;;;;5.97;100.00;103311.44;5211132;28;20035;-72
2023/12/18 02:47:30;;;;;;;44.85;17.38;;;;;;;6.01;100.00;103314.84;5208489;28;20026;-72
2023/12/18 02:50:01;;;;;;;43.95;17.98;;;;;;;6.11;100.00;103308.97;5210078;28;20025;-72
2023/12/18 02:52:32;;;;;;;48.85;18.60;;;;;;;6.00;100.00;103303.31;5208530;28;20033;-72
2023/12/18 02:55:02;;;;;;;52.50;18.10;;;;;;;6.00;100.00;103299.78;5208444;28;20399;-72
2023/12/18 02:57:33;;;;;;;45.83;17.95;;;;;;;6.05;100.00;103301.28;5209010;28;20021;-72
2023/12/18 03:00:05;;;;;;;42.30;18.42;;;;;;;6.18;100.00;103299.75;5204845;28;20475;-72
2023/12/18 03:02:42;;;;;;;46.33;18.20;;;;;;;6.07;100.00;103299.41;5206461;28;20040;-72
2023/12/18 03:05:14;;;;;;;49.20;18.67;;;;;;;6.09;100.00;103302.00;5207788;28;20033;-74
2023/12/18 03:07:44;;;;;;;49.30;19.80;;;;;;;6.07;100.00;103301.19;5207286;28;20048;-74
2023/12/18 03:10:15;;;;;;;43.50;16.83;;;;;;;6.12;100.00;103307.16;5203434;28;20033;-72
2023/12/18 03:12:45;;;;;;;53.97;19.63;;;;;;;6.10;100.00;103290.41;5204293;28;20029;-74
2023/12/18 03:15:16;;;;;;;44.60;19.67;;;;;;;6.01;100.00;103283.72;5204475;28;20388;-74
2023/12/18 03:17:46;;;;;;;46.63;17.73;;;;;;;6.27;100.00;103277.06;5211010;28;20396;-73
2023/12/18 03:20:17;;;;;;;44.60;19.30;;;;;;;6.23;100.00;103270.19;5205948;28;20025;-73
2023/12/18 03:22:47;;;;;;;42.47;17.83;;;;;;;6.04;100.00;103269.41;5212096;28;20392;-74
2023/12/18 03:25:18;;;;;;;45.78;20.13;;;;;;;6.02;100.00;103271.25;5208703;28;20052;-74
2023/12/18 03:27:48;;;;;;;48.03;18.58;;;;;;;5.97;100.00;103274.16;5210065;28;20032;-74
2023/12/18 03:30:19;;;;;;;45.05;18.05;;;;;;;6.10;100.00;103274.41;5208204;28;20021;-73
2023/12/18 03:32:50;;;;;;;48.70;19.30;;;;;;;6.03;100.00;103267.69;5210214;28;20218;-74
2023/12/18 03:35:20;;;;;;;41.05;18.35;;;;;;;5.99;100.00;103263.44;5214321;28;20021;-74
2023/12/18 03:37:51;;;;;;;54.97;19.27;;;;;;;5.94;100.00;103267.19;5209881;28;20338;-72
2023/12/18 03:40:21;;;;;;;53.05;19.13;;;;;;;6.00;100.00;103275.81;5209508;28;20277;-72
2023/12/18 03:42:52;;;;;;;47.30;18.90;;;;;;;6.11;100.00;103276.13;5205732;28;20506;-72
2023/12/18 03:45:22;;;;;;;43.65;17.75;;;;;;;6.17;100.00;103268.66;5207267;28;20576;-72
2023/12/18 03:47:53;;;;;;;50.83;19.08;;;;;;;6.19;100.00;103269.47;5206356;28;20039;-72
2023/12/18 03:50:23;;;;;;;56.10;19.52;;;;;;;6.14;100.00;103279.50;5207079;28;20025;-74
2023/12/18 03:52:53;;;;;;;52.67;19.73;;;;;;;6.19;100.00;103282.81;5209910;28;20543;-72
2023/12/18 03:55:24;;;;;;;52.78;18.52;;;;;;;6.20;100.00;103279.19;5219599;28;20075;-72
2023/12/18 03:57:54;;;;;;;51.78;18.67;;;;;;;6.17;100.00;103276.66;5210760;28;20032;-72
2023/12/18 04:00:25;;;;;;;55.47;20.85;;;;;;;6.16;100.00;103274.94;5207717;28;20032;-73
2023/12/18 04:02:56;;;;;;;53.28;17.80;;;;;;;6.16;100.00;103266.94;5209465;28;20037;-72
2023/12/18 04:05:26;;;;;;;54.53;20.25;;;;;;;6.18;100.00;103270.41;5207485;28;20373;-72
2023/12/18 04:07:57;;;;;;;48.30;18.55;;;;;;;6.24;100.00;103271.91;5207208;28;20033;-72
2023/12/18 04:10:27;;;;;;;56.78;19.02;;;;;;;6.17;100.00;103267.81;5206777;28;20354;-72
2023/12/18 04:12:58;;;;;;;54.55;19.20;;;;;;;6.23;100.00;103279.03;5210386;28;20067;-72
2023/12/18 04:15:28;;;;;;;56.63;19.58;;;;;;;6.22;100.00;103279.09;5205387;28;20451;-72
2023/12/18 04:17:59;;;;;;;47.45;18.60;;;;;;;6.30;100.00;103279.56;5206837;28;20086;-72
2023/12/18 04:20:29;;;;;;;61.97;21.25;;;;;;;6.27;100.00;103273.53;5204492;28;20014;-72
2023/12/18 04:23:00;;;;;;;57.35;20.42;;;;;;;6.18;100.00;103277.56;5206466;28;20041;-72
2023/12/18 04:25:30;;;;;;;62.00;20.50;;;;;;;6.26;100.00;103278.00;5208309;28;20473;-72
2023/12/18 04:28:01;;;;;;;55.33;20.08;;;;;;;6.18;100.00;103283.75;5208402;28;20120;-72
2023/12/18 04:30:31;;;;;;;55.03;20.15;;;;;;;6.15;100.00;103283.03;5207507;28;20370;-72
2023/12/18 04:33:02;;;;;;;54.38;20.08;;;;;;;6.32;100.00;103275.00;5207075;28;20039;-72
2023/12/18 04:35:32;;;;;;;62.35;20.27;;;;;;;6.18;100.00;103269.56;5204496;28;20036;-72
2023/12/18 04:38:03;;;;;;;50.20;20.20;;;;;;;6.25;100.00;103268.28;5209385;28;20090;-72
2023/12/18 04:40:33;;;;;;;59.85;20.98;;;;;;;6.25;100.00;103260.28;5205797;28;20022;-72
2023/12/18 04:43:04;;;;;;;55.88;20.02;;;;;;;6.27;100.00;103265.53;5207874;28;20082;-72
2023/12/18 04:45:34;;;;;;;60.65;20.48;;;;;;;6.26;100.00;103266.47;5206621;28;20025;-72
2023/12/18 04:48:05;;;;;;;72.65;21.52;;;;;;;6.30;100.00;103268.06;5206935;28;20017;-72
2023/12/18 04:50:36;;;;;;;54.75;20.17;;;;;;;6.26;100.00;103263.81;5207609;28;20030;-72
2023/12/18 04:53:06;;;;;;;57.17;23.70;;;;;;;6.31;100.00;103261.78;5209837;28;20108;-72
2023/12/18 04:55:37;;;;;;;57.47;21.67;;;;;;;6.25;100.00;103262.09;5206425;28;20025;-72
2023/12/18 04:58:07;;;;;;;56.47;20.90;;;;;;;6.32;100.00;103261.69;5204847;28;20447;-72
2023/12/18 05:00:38;;;;;;;56.42;19.63;;;;;;;6.42;100.00;103257.59;5208436;28;20024;-72
2023/12/18 05:03:08;;;;;;;63.08;20.15;;;;;;;6.32;100.00;103253.69;5208549;28;20300;-72
2023/12/18 05:05:38;;;;;;;54.35;22.42;;;;;;;6.31;100.00;103261.78;5208408;28;20032;-72
2023/12/18 05:08:09;;;;;;;61.15;21.17;;;;;;;6.35;100.00;103261.53;5205976;28;20025;-72
2023/12/18 05:10:39;;;;;;;58.67;21.52;;;;;;;6.44;100.00;103258.41;5207321;28;20029;-72
2023/12/18 05:13:10;;;;;;;49.05;20.25;;;;;;;6.49;100.00;103264.34;5208932;28;20021;-72
2023/12/18 05:15:40;;;;;;;52.20;20.05;;;;;;;6.45;100.00;103262.78;5205486;28;20489;-72
2023/12/18 05:18:11;;;;;;;56.10;20.10;;;;;;;6.41;100.00;103263.88;5209064;28;20037;-72
2023/12/18 05:20:41;;;;;;;62.83;21.45;;;;;;;6.44;100.00;103263.72;5206433;28;20021;-72
2023/12/18 05:23:12;;;;;;;48.65;19.45;;;;;;;6.47;100.00;103273.34;5207245;28;20041;-72
2023/12/18 05:25:42;;;;;;;57.67;19.95;;;;;;;6.47;100.00;103268.88;5209223;28;20021;-72
2023/12/18 05:28:13;;;;;;;53.22;20.63;;;;;;;6.41;100.00;103271.03;5206209;28;20029;-72
2023/12/18 05:30:43;;;;;;;43.80;18.60;;;;;;;6.47;100.00;103268.88;5209329;28;20022;-72
2023/12/18 05:33:14;;;;;;;52.17;20.70;;;;;;;6.45;100.00;103270.78;5207709;28;22940;-72
2023/12/18 05:35:45;;;;;;;49.45;19.10;;;;;;;6.48;100.00;103265.31;5208666;28;20052;-72
2023/12/18 05:38:15;;;;;;;49.30;18.70;;;;;;;6.45;100.00;103268.13;5207336;28;20037;-72
2023/12/18 05:40:45;;;;;;;57.33;20.70;;;;;;;6.44;100.00;103262.88;5205120;28;20040;-72
2023/12/18 05:43:16;;;;;;;56.60;19.33;;;;;;;6.52;100.00;103265.13;5200553;28;20021;-71
2023/12/18 05:45:47;;;;;;;53.10;20.85;;;;;;;6.54;100.00;103271.25;5209032;28;20029;-72
2023/12/18 05:48:17;;;;;;;49.95;19.63;;;;;;;6.56;100.00;103266.69;5210039;28;20036;-72
2023/12/18 05:50:49;;;;;;;48.70;18.65;;;;;;;6.52;100.00;103265.97;5215361;28;20056;-71
2023/12/18 05:53:21;;;;;;;66.53;21.25;;;;;;;6.55;100.00;103270.31;5208703;28;20025;-72
2023/12/18 05:55:51;;;;;;;51.88;20.20;;;;;;;6.61;100.00;103280.63;5211304;28;20031;-71
2023/12/18 05:58:22;;;;;;;52.30;19.50;;;;;;;6.60;100.00;103274.44;5214837;28;20392;-71
2023/12/18 06:00:52;;;;;;;54.38;20.58;;;;;;;6.60;100.00;103270.91;5214612;28;20510;-71
2023/12/18 06:03:23;;;;;;;70.20;22.02;;;;;;;6.57;100.00;103271.06;5211108;28;20032;-71
2023/12/18 06:05:53;;;;;;;58.75;21.02;;;;;;;6.58;100.00;103273.69;5210119;28;20078;-72
2023/12/18 06:08:23;;;;;;;55.80;20.48;;;;;;;6.45;100.00;103273.44;5213159;28;20408;-71
2023/12/18 06:10:54;;;;;;;57.58;20.17;;;;;;;6.47;100.00;103274.22;5204052;28;20029;-72
2023/12/18 06:13:24;;;;;;;56.25;21.02;;;;;;;6.41;100.00;103269.22;5203646;28;20055;-71
2023/12/18 06:15:55;;;;;;;60.47;20.85;;;;;;;6.44;100.00;103271.72;5212592;28;20025;-72
2023/12/18 06:18:26;;;;;;;47.85;19.98;;;;;;;6.48;100.00;103267.97;5210748;28;20026;-72
2023/12/18 06:20:56;;;;;;;53.80;20.15;;;;;;;6.43;100.00;103270.00;5211493;28;20028;-72
2023/12/18 06:23:28;;;;;;;56.08;21.30;;;;;;;6.44;100.00;103268.19;5209163;28;20025;-72
2023/12/18 06:25:59;;;;;;;54.28;20.98;;;;;;;6.44;100.00;103263.72;5214153;28;20029;-72
2023/12/18 06:28:29;;;;;;;57.40;21.15;;;;;;;6.44;100.00;103266.41;5212774;28;20024;-72
2023/12/18 06:31:00;;;;;;;55.67;21.35;;;;;;;6.59;100.00;103261.19;5209261;28;20107;-72
2023/12/18 06:33:30;;;;;;;55.22;21.40;;;;;;;6.58;100.00;103259.47;5211614;28;20029;-72
2023/12/18 06:36:01;;;;;;;54.42;19.95;;;;;;;6.57;100.00;103263.94;5207131;28;20056;-72
2023/12/18 06:38:31;;;;;;;57.95;20.38;;;;;;;6.60;100.00;103262.91;5211465;28;20048;-72
2023/12/18 06:41:02;;;;;;;56.33;21.02;;;;;;;6.52;100.00;103268.66;5207851;28;20371;-72
2023/12/18 06:43:32;;;;;;;53.88;22.60;;;;;;;6.62;100.00;103275.22;5212718;28;20396;-72
2023/12/18 06:46:04;;;;;;;64.95;19.75;;;;;;;6.54;100.00;103272.09;5206385;28;20477;-72
2023/12/18 06:48:34;;;;;;;50.58;18.98;;;;;;;6.62;100.00;103277.88;5202258;28;20029;-72
2023/12/18 06:51:08;;;;;;;62.10;21.80;;;;;;;6.56;100.00;103274.69;5206784;28;20025;-72
2023/12/18 06:53:39;;;;;;;80.57;22.65;;;;;;;6.47;100.00;103279.53;5207105;28;20433;-71
2023/12/18 06:56:09;;;;;;;97.63;44.80;;;;;;;6.44;100.00;103277.06;5212820;28;20071;-72
2023/12/18 06:58:39;;;;;;;52.88;21.00;;;;;;;6.56;100.00;103274.69;5213152;28;20036;-72
2023/12/18 07:01:10;;;;;;;56.38;20.38;;;;;;;6.58;100.00;103267.50;5210394;28;20484;-72
2023/12/18 07:03:40;;;;;;;63.35;21.63;;;;;;;6.62;100.00;103263.69;5192040;28;20025;-71
2023/12/18 07:06:11;;;;;;;54.15;19.08;;;;;;;6.46;100.00;103267.16;5205375;28;20017;-71
2023/12/18 07:08:42;;;;;;;64.97;20.20;;;;;;;6.55;100.00;103275.63;5212175;28;20116;-72
2023/12/18 07:11:12;;;;;;;52.22;20.77;;;;;;;6.52;100.00;103265.97;5206983;28;20029;-72
2023/12/18 07:13:43;;;;;;;63.25;22.08;;;;;;;6.58;100.00;103267.50;5212104;28;20603;-72
2023/12/18 07:16:21;;;;;;;55.05;20.60;;;;;;;6.57;100.00;103269.25;5207800;28;20025;-72
2023/12/18 07:18:53;;;;;;;55.30;19.63;;;;;;;6.60;100.00;103268.25;5210439;28;20025;-72
2023/12/18 07:21:24;;;;;;;53.85;19.73;;;;;;;6.54;100.00;103274.78;5213007;28;20383;-72
2023/12/18 07:23:54;;;;;;;52.75;19.95;;;;;;;6.64;100.00;103269.81;5202718;28;20025;-72
2023/12/18 07:26:25;;;;;;;47.33;19.77;;;;;;;6.70;100.00;103274.81;5207796;28;20029;-72
2023/12/18 07:28:55;;;;;;;58.42;21.05;;;;;;;6.68;100.00;103277.59;5205572;28;20035;-71
2023/12/18 07:31:28;;;;;;;59.40;20.52;;;;;;;6.67;100.00;103278.50;5207825;28;20457;-71
2023/12/18 07:33:58;;;;;;;49.33;18.95;;;;;;;6.71;100.00;103276.53;5212270;28;20431;-72
2023/12/18 07:36:29;;;;;;;54.85;20.27;;;;;;;6.68;100.00;103284.72;5206143;28;20029;-71
2023/12/18 07:38:59;;;;;;;63.92;18.75;;;;;;;6.73;100.00;103290.69;5204986;28;20029;-71
2023/12/18 07:41:30;;;;;;;49.40;19.10;;;;;;;6.71;100.00;103284.53;5199271;28;20027;-71
2023/12/18 07:44:01;;;;;;;53.28;19.85;;;;;;;6.71;100.00;103280.06;5207419;28;20044;-72
2023/12/18 07:46:31;;;;;;;55.05;19.92;;;;;;;6.78;100.00;103277.06;5207927;28;20029;-72
2023/12/18 07:49:02;;;;;;;51.13;18.10;;;;;;;6.75;100.00;103278.97;5208388;28;20030;-72
2023/12/18 07:51:34;;;;;;;49.83;19.73;;;;;;;6.88;100.00;103283.66;5205079;28;20033;-72
2023/12/18 07:54:04;;;;;;;48.00;19.90;;;;;;;6.89;100.00;103278.22;5203606;28;20226;-72
2023/12/18 07:56:35;;;;;;;61.22;21.88;;;;;;;6.79;100.00;103289.47;5208666;28;20398;-72
2023/12/18 07:59:07;;;;;;;56.15;18.55;;;;;;;6.88;100.00;103297.84;5207909;28;20036;-71
2023/12/18 08:01:38;;;;;;;56.10;19.20;;;;;;;6.85;100.00;103284.66;5207584;28;20029;-71
2023/12/18 08:04:09;;;;;;;55.30;18.67;;;;;;;6.69;100.00;103297.97;5208713;28;20021;-72
2023/12/18 08:06:40;;;;;;;45.65;18.30;;;;;;;6.69;100.00;103289.97;5209239;28;20029;-72
2023/12/18 08:09:10;;;;;;;47.55;16.60;;;;;;;6.75;100.00;103288.78;5204515;28;20040;-72
2023/12/18 08:11:41;;;;;;;49.75;17.73;;;;;;;6.69;100.00;103297.13;5199436;28;20492;-72
2023/12/18 08:14:12;;;;;;;48.58;16.88;;;;;;;6.73;100.00;103290.69;5202758;28;20044;-72
2023/12/18 08:16:42;;;;;;;43.85;16.20;;;;;;;6.74;100.00;103284.38;5204692;28;20095;-72
2023/12/18 08:19:13;;;;;;;44.67;16.40;;;;;;;6.67;100.00;103281.16;5200185;28;20400;-72
2023/12/18 08:21:44;;;;;;;43.03;16.60;;;;;;;6.73;100.00;103290.69;5204987;28;20101;-72
2023/12/18 08:24:14;;;;;;;42.80;16.52;;;;;;;6.67;100.00;103285.66;5210175;28;20094;-72
2023/12/18 08:26:47;;;;;;;48.70;16.80;;;;;;;6.62;100.00;103275.22;5210973;28;20022;-73
2023/12/18 08:29:18;;;;;;;48.83;16.13;;;;;;;6.68;100.00;103287.41;5201571;28;20053;-72
2023/12/18 08:31:49;;;;;;;46.05;16.88;;;;;;;6.74;100.00;103281.72;5217317;28;20035;-72
2023/12/18 08:34:19;;;;;;;43.95;16.67;;;;;;;6.70;100.00;103278.34;5207469;28;20405;-72
2023/12/18 08:36:50;;;;;;;49.30;16.65;;;;;;;6.69;100.00;103279.28;5206247;28;20071;-72
2023/12/18 08:39:20;;;;;;;41.97;16.58;;;;;;;6.80;100.00;103265.38;5206420;28;20025;-72
2023/12/18 08:41:51;;;;;;;39.83;15.75;;;;;;;6.63;100.00;103260.97;5205674;28;20048;-72
2023/12/18 08:44:21;;;;;;;41.08;14.88;;;;;;;6.65;100.00;103274.22;5201799;28;20567;-72
2023/12/18 08:46:52;;;;;;;43.22;17.45;;;;;;;6.67;100.00;103272.31;5210109;28;20033;-72
2023/12/18 08:49:22;;;;;;;42.10;16.42;;;;;;;6.61;100.00;103269.97;5204589;28;20033;-72
2023/12/18 08:51:53;;;;;;;41.05;16.00;;;;;;;6.53;100.00;103265.06;5210750;28;20021;-72
2023/12/18 08:54:23;;;;;;;44.60;15.10;;;;;;;6.55;100.00;103262.31;5209433;28;20037;-72
2023/12/18 08:56:54;;;;;;;41.17;16.05;;;;;;;6.41;100.00;103253.22;5208938;28;20040;-72
2023/12/18 08:59:24;;;;;;;47.22;16.98;;;;;;;6.54;100.00;103258.78;5202853;28;20029;-72
2023/12/18 09:01:55;;;;;;;43.72;16.05;;;;;;;6.35;100.00;103258.88;5202478;28;20028;-72
2023/12/18 09:04:25;;;;;;;39.15;16.02;;;;;;;6.47;100.00;103257.34;5206188;28;20022;-72
2023/12/18 09:06:56;;;;;;;39.95;16.33;;;;;;;6.37;100.00;103254.31;5199928;28;20029;-72
2023/12/18 09:09:26;;;;;;;46.03;16.27;;;;;;;6.31;100.00;103251.09;5204996;28;20064;-71
2023/12/18 09:11:57;;;;;;;39.05;15.77;;;;;;;6.52;100.00;103259.78;5208891;28;20040;-72
2023/12/18 09:14:27;;;;;;;43.22;16.33;;;;;;;6.40;100.00;103262.16;5205815;28;20037;-72
2023/12/18 09:16:59;;;;;;;37.70;14.38;;;;;;;6.53;100.00;103256.19;5210388;28;20484;-72
2023/12/18 09:19:29;;;;;;;38.70;15.13;;;;;;;6.49;100.00;103256.34;5206549;28;20053;-72
2023/12/18 09:22:00;;;;;;;41.42;16.83;;;;;;;6.57;100.00;103260.41;5202469;28;20055;-72
2023/12/18 09:24:30;;;;;;;36.25;14.43;;;;;;;6.65;100.00;103253.72;5204379;28;20036;-72
2023/12/18 09:27:01;;;;;;;40.63;14.93;;;;;;;6.74;100.00;103257.72;5219627;28;20024;-72
2023/12/18 09:29:32;;;;;;;34.60;14.07;;;;;;;6.67;100.00;103258.97;5204989;28;20036;-72
2023/12/18 09:32:02;;;;;;;36.03;15.02;;;;;;;6.72;100.00;103262.25;5214114;28;20035;-72
2023/12/18 09:34:33;;;;;;;39.95;13.52;;;;;;;6.64;100.00;103261.81;5203427;28;20029;-72
2023/12/18 09:37:03;;;;;;;30.77;14.13;;;;;;;6.64;100.00;103253.81;5210023;28;20040;-72
2023/12/18 09:39:34;;;;;;;37.08;14.10;;;;;;;6.68;100.00;103268.72;5210035;28;20021;-72
2023/12/18 09:42:05;;;;;;;39.90;14.00;;;;;;;6.66;100.00;103260.78;5213641;28;20487;-72
2023/12/18 09:44:37;;;;;;;41.95;15.05;;;;;;;6.57;100.00;103252.41;5210347;28;20037;-73
2023/12/18 09:47:07;;;;;;;37.95;15.00;;;;;;;6.60;100.00;103261.09;5206585;28;20103;-73
2023/12/18 09:49:38;;;;;;;42.42;15.38;;;;;;;6.39;100.00;103254.25;5211467;28;20112;-72
2023/12/18 09:52:11;;;;;;;38.60;15.27;;;;;;;6.19;100.00;103263.28;5208338;28;20029;-72
2023/12/18 09:54:43;;;;;;;39.97;14.52;;;;;;;6.11;100.00;103257.47;5214470;28;20508;-72
2023/12/18 09:57:18;;;;;;;37.72;14.48;;;;;;;6.20;100.00;103262.34;5210284;28;20051;-72
2023/12/18 09:59:49;;;;;;;44.08;14.60;;;;;;;6.06;100.00;103247.03;5213380;28;20032;-72
2023/12/18 10:02:21;;;;;;;42.20;15.90;;;;;;;5.95;100.00;103247.59;5207212;28;20033;-72
2023/12/18 10:04:52;;;;;;;40.10;15.00;;;;;;;5.88;100.00;103246.16;5206455;28;20060;-72
2023/12/18 10:07:24;;;;;;;38.22;15.10;;;;;;;5.86;100.00;103260.47;5205006;28;20057;-73
2023/12/18 10:09:55;;;;;;;39.22;14.18;;;;;;;5.81;100.00;103258.03;5208681;28;20029;-72
2023/12/18 10:12:25;;;;;;;40.50;14.55;;;;;;;5.79;100.00;103259.94;5208370;28;20481;-72
2023/12/18 10:14:56;;;;;;;35.80;15.55;;;;;;;5.88;100.00;103266.63;5199146;28;20032;-72
2023/12/18 10:17:28;;;;;;;36.33;15.25;;;;;;;5.93;100.00;103264.63;5206358;28;20026;-73
2023/12/18 10:20:02;;;;;;;35.53;14.23;;;;;;;5.80;100.00;103255.47;5209811;28;20022;-73
2023/12/18 10:22:33;;;;;;;47.30;16.80;;;;;;;5.88;100.00;103259.47;5204237;28;20025;-73
2023/12/18 10:25:04;;;;;;;43.28;15.07;;;;;;;5.94;100.00;103253.00;5203074;28;20064;-71
2023/12/18 10:27:38;;;;;;;36.65;14.82;;;;;;;5.94;100.00;103255.69;5204803;28;20388;-72
2023/12/18 10:30:09;;;;;;;44.42;16.48;;;;;;;5.91;100.00;103254.00;5204739;28;20017;-72
2023/12/18 10:32:40;;;;;;;44.70;16.05;;;;;;;5.86;100.00;103242.69;5204304;28;20534;-72
2023/12/18 10:35:11;;;;;;;43.08;15.70;;;;;;;5.88;100.00;103251.50;5203841;28;20097;-72
2023/12/18 10:37:48;;;;;;;43.58;15.45;;;;;;;5.96;100.00;103248.44;5204650;28;20068;-72
2023/12/18 10:40:22;;;;;;;43.15;14.85;;;;;;;6.04;100.00;103245.41;5212341;28;20025;-72
2023/12/18 10:43:10;;;;;;;39.97;14.35;;;;;;;6.04;100.00;103238.28;5205077;28;20091;-72
2023/12/18 10:45:42;;;;;;;41.72;15.10;;;;;;;6.06;100.00;103236.38;5204077;28;20027;-72
2023/12/18 10:48:15;;;;;;;43.03;17.00;;;;;;;6.03;100.00;103233.91;5196042;28;20034;-72
2023/12/18 10:50:50;;;;;;;40.45;14.88;;;;;;;6.07;100.00;103226.59;5188359;28;20037;-72
2023/12/18 10:53:23;;;;;;;47.20;15.70;;;;;;;6.09;100.00;103224.72;5203882;28;20036;-72
2023/12/18 10:55:56;;;;;;;52.28;16.83;;;;;;;6.09;100.00;103222.91;5196356;28;20052;-73
2023/12/18 10:58:28;;;;;;;40.17;15.00;;;;;;;6.19;100.00;103224.16;5208808;28;20059;-72
2023/12/18 11:01:00;;;;;;;41.95;16.17;;;;;;;6.17;100.00;103214.50;5207202;28;20353;-72
2023/12/18 11:03:32;;;;;;;44.38;15.60;;;;;;;6.25;100.00;103212.31;5216190;28;20412;-72
2023/12/18 11:06:05;;;;;;;44.08;15.60;;;;;;;6.26;100.00;103207.84;5204078;28;20509;-72
2023/12/18 11:08:35;;;;;;;41.38;15.00;;;;;;;6.23;100.00;103200.88;5204131;28;20384;-72
2023/12/18 11:11:06;;;;;;;31.10;13.93;;;;;;;6.23;100.00;103211.53;5204141;28;20029;-72
2023/12/18 11:13:47;;;;;;;34.20;14.68;;;;;;;6.21;100.00;103205.41;5205777;28;20527;-74
2023/12/18 11:16:24;;;;;;;43.97;17.67;;;;;;;6.31;100.00;103211.13;5203944;28;20025;-72
2023/12/18 11:19:09;;;;;;;52.92;14.95;;;;;;;6.32;100.00;103203.03;5204596;28;20032;-72
2023/12/18 11:21:40;;;;;;;44.75;15.82;;;;;;;6.31;100.00;103200.47;5203664;28;20385;-72
2023/12/18 11:24:11;;;;;;;37.22;14.68;;;;;;;6.43;100.00;103197.16;5203301;28;20060;-72
2023/12/18 11:26:44;;;;;;;37.28;15.20;;;;;;;6.36;100.00;103187.75;5202607;28;20059;-72